Asheville Regional Airport
KAVL : now visible

Airfield :











YOU CAN JOIN US ON...

 
LOGIN :

Register | Disclaimer

   EN    FR    IT 

 









Legend :    VFR   Marginal VFR   IFR   Intensive IFR   Very Intensive IFR
Visi :
Ceiling :
>= 8 km
>= 3000ft
5 to 8 km
1000 to 3000 ft
1500m to 5 km
500 to 1000 ft
800 to 1500m
200 to 500 ft
< 800m
< 200 ft
Symbols :   Thunderstorms  Fog  Heavy snow  Heavy precipitations  Wind > 20 kt






- Airport Elevation : 2165 ft
- IATA code : AVL


KAVL - Asheville Regional

CURRENT METAR :
  • 280514Z AUTO 00000KT 10SM BKN004 BKN042 17/17 A3005 RMK AO2 T01720167

EXPIRED METARs :
  • 280504Z AUTO 13003KT 10SM SCT004 OVC042 17/17 A3006 RMK AO2 T01720167
  • 280354Z AUTO 00000KT 10SM FEW110 18/17 A3005 RMK AO2 SLP156 T01780167
  • 280254Z AUTO 17004KT 10SM BKN100 18/17 A3006 RMK AO2 SLP157 T01780167 53003

TAF KAVL
Valid from the 28 at 00:00 until the 29 at 00:00 UTC


272338Z 2800/2824 VRB04KT P6SM BKN018
FM280700 00000KT 5SM BR BKN008
FM280900 00000KT 1SM BR BKN005
FM281300 VRB02KT P6SM BKN009
FM281600 18007KT P6SM SCT015 BKN025
PROB30 2816/2822 4SM TSRA BR OVC015CB
FM282200 18006KT P6SM VCTS BKN080CB
KZTL FIR / North America



MET'MAP, your aeronautical weather chart ! - Copyright ORBIFLY December 2007 - Disclaimer

ORBIFLY MET'MAP TEAM :

Programming & Development : Alexandra Zaïnal
Concept & original design : Baudouin d'Aumeries
Assistance for programming : Marc-Olivier Méhu
Technical & hardware support : Manuel Goepfert

Contact : metmap@orbifly.com




SOURCES & CREDITS :

   NOAA       Earth
Advisory